createdAt,value
2023-03-15T00:00:12.794Z,98594.30
2023-03-15T00:03:04.406Z,98596.48
2023-03-15T00:05:33.553Z,98600.79
2023-03-15T00:08:05.625Z,98608.15
2023-03-15T00:10:34.306Z,98615.89
2023-03-15T00:13:03.041Z,98619.73
2023-03-15T00:15:32.129Z,98626.65
2023-03-15T00:18:03.665Z,98629.75
2023-03-15T00:20:33.620Z,98633.75
2023-03-15T00:23:02.408Z,98643.09
2023-03-15T00:25:30.979Z,98643.79
2023-03-15T00:27:59.677Z,98645.73
2023-03-15T00:30:28.936Z,98644.89
2023-03-15T00:32:57.706Z,98650.77
2023-03-15T00:35:26.579Z,98653.19
2023-03-15T00:37:56.693Z,98656.91
2023-03-15T00:40:25.830Z,98665.62
2023-03-15T00:42:54.528Z,98672.98
2023-03-15T00:45:23.708Z,98679.05
2023-03-15T00:47:55.073Z,98676.48
2023-03-15T00:50:24.263Z,98682.52
2023-03-15T00:52:53.078Z,98687.92
2023-03-15T00:55:22.122Z,98691.02
2023-03-15T00:57:50.712Z,98693.28
2023-03-15T01:00:25.181Z,98697.63
2023-03-15T01:02:55.470Z,98697.39
2023-03-15T01:05:24.347Z,98701.50
2023-03-15T01:07:53.300Z,98701.41
2023-03-15T01:10:22.062Z,98707.05
2023-03-15T01:12:50.797Z,98711.36
2023-03-15T01:15:19.912Z,98713.58
2023-03-15T01:17:48.533Z,98713.91
2023-03-15T01:20:17.286Z,98720.89
2023-03-15T01:22:46.463Z,98727.63
2023-03-15T01:25:15.109Z,98739.55
2023-03-15T01:27:43.897Z,98743.05
2023-03-15T01:30:12.841Z,98757.87
2023-03-15T01:32:41.914Z,98759.55
2023-03-15T01:35:10.844Z,98759.65
2023-03-15T01:37:39.658Z,98763.33
2023-03-15T01:40:14.829Z,98767.19
2023-03-15T01:43:12.860Z,98768.55
2023-03-15T01:46:20.338Z,98774.59
2023-03-15T01:49:05.940Z,98774.00
2023-03-15T01:51:42.233Z,98778.94
2023-03-15T01:54:19.687Z,98786.23
2023-03-15T01:56:53.481Z,98786.69
2023-03-15T01:59:46.081Z,98788.16
2023-03-15T02:02:15.262Z,98793.45
2023-03-15T02:04:50.032Z,98806.22
2023-03-15T02:07:21.286Z,98811.83
2023-03-15T02:10:02.685Z,98822.15
2023-03-15T02:12:34.120Z,98829.23
2023-03-15T02:15:06.274Z,98835.26
2023-03-15T02:17:38.371Z,98842.51
2023-03-15T02:20:28.362Z,98841.05
2023-03-15T02:23:01.505Z,98842.98
2023-03-15T02:25:51.373Z,98843.09
2023-03-15T02:28:20.931Z,98842.81
2023-03-15T02:30:51.065Z,98841.21
2023-03-15T02:33:19.579Z,98845.69
2023-03-15T02:35:48.288Z,98850.00
2023-03-15T02:38:17.144Z,98845.40
2023-03-15T02:40:47.087Z,98842.86
2023-03-15T02:43:20.743Z,98850.76
2023-03-15T02:45:50.131Z,98859.36
2023-03-15T02:48:19.722Z,98871.41
2023-03-15T02:50:48.259Z,98879.48
2023-03-15T02:53:17.003Z,98885.51
2023-03-15T02:55:45.575Z,98889.14
2023-03-15T02:58:14.132Z,98896.88
2023-03-15T03:00:43.203Z,98900.86
2023-03-15T03:03:12.051Z,98901.27
2023-03-15T03:05:41.305Z,98906.27
2023-03-15T03:08:37.234Z,98914.20
2023-03-15T03:11:06.873Z,98918.55
2023-03-15T03:13:35.616Z,98926.11
2023-03-15T03:16:04.319Z,98928.43
2023-03-15T03:18:36.178Z,98935.48
2023-03-15T03:21:07.347Z,98940.52
2023-03-15T03:23:36.935Z,98949.45
2023-03-15T03:26:17.154Z,98950.71
2023-03-15T03:28:47.518Z,98956.55
2023-03-15T03:31:22.764Z,98959.67
2023-03-15T03:33:52.067Z,98966.52
2023-03-15T03:36:20.769Z,98967.70
2023-03-15T03:38:49.486Z,98970.12
2023-03-15T03:41:18.275Z,98972.22
2023-03-15T03:43:47.431Z,98970.86
2023-03-15T03:46:16.093Z,98972.27
2023-03-15T03:48:44.886Z,98977.33
2023-03-15T03:51:13.528Z,98980.64
2023-03-15T03:53:42.240Z,98987.20
2023-03-15T03:56:11.287Z,98994.66
2023-03-15T03:58:39.882Z,98997.45
2023-03-15T04:01:09.099Z,98995.83
2023-03-15T04:03:38.257Z,99004.10
2023-03-15T04:06:06.988Z,99008.21
2023-03-15T04:08:55.857Z,99010.47
2023-03-15T04:11:27.062Z,99017.48
2023-03-15T04:13:56.123Z,99020.73
2023-03-15T04:16:25.066Z,99024.16
2023-03-15T04:18:56.733Z,99027.22
2023-03-15T04:21:25.436Z,99029.61
2023-03-15T04:23:54.494Z,99029.89
2023-03-15T04:26:26.791Z,99038.48
2023-03-15T04:28:58.169Z,99044.80
2023-03-15T04:31:27.558Z,99045.20
2023-03-15T04:33:57.260Z,99049.30
2023-03-15T04:36:26.323Z,99054.85
2023-03-15T04:39:05.757Z,99065.61
2023-03-15T04:41:39.853Z,99068.35
2023-03-15T04:44:08.345Z,99073.04
2023-03-15T04:46:37.416Z,99078.40
2023-03-15T04:49:06.476Z,99076.89
2023-03-15T04:51:35.453Z,99083.66
2023-03-15T04:54:04.139Z,99082.19
2023-03-15T04:56:33.285Z,99085.63
2023-03-15T04:59:03.090Z,99088.95
2023-03-15T05:01:32.633Z,99086.73
2023-03-15T05:04:01.479Z,99085.39
2023-03-15T05:06:30.148Z,99083.15
2023-03-15T05:10:04.847Z,99081.77
2023-03-15T05:12:34.285Z,99083.55
2023-03-15T05:15:03.046Z,99083.70
2023-03-15T05:17:34.006Z,99093.13
2023-03-15T05:20:02.836Z,99093.73
2023-03-15T05:22:31.475Z,99102.95
2023-03-15T05:25:00.068Z,99111.24
2023-03-15T05:27:29.655Z,99116.66
2023-03-15T05:29:58.794Z,99122.15
2023-03-15T05:32:27.513Z,99121.71
2023-03-15T05:34:56.270Z,99123.92
2023-03-15T05:37:24.946Z,99132.92
2023-03-15T05:39:54.017Z,99132.17
2023-03-15T05:42:26.584Z,99135.02
2023-03-15T05:44:57.497Z,99135.09
2023-03-15T05:47:26.193Z,99140.83
2023-03-15T05:49:54.912Z,99143.27
2023-03-15T05:52:24.662Z,99147.52
2023-03-15T05:54:53.293Z,99154.34
2023-03-15T05:57:21.973Z,99158.73
2023-03-15T05:59:51.062Z,99156.51
2023-03-15T06:02:20.401Z,99160.47
2023-03-15T06:04:49.116Z,99154.84
2023-03-15T06:07:18.394Z,99162.23
2023-03-15T06:10:46.829Z,99169.30
2023-03-15T06:13:17.897Z,99167.42
2023-03-15T06:15:48.230Z,99168.30
2023-03-15T06:18:17.802Z,99166.13
2023-03-15T06:20:46.585Z,99168.88
2023-03-15T06:23:15.369Z,99169.36
2023-03-15T06:25:45.719Z,99166.77
2023-03-15T06:28:14.861Z,99168.21
2023-03-15T06:30:44.624Z,99161.56
2023-03-15T06:33:13.683Z,99165.95
2023-03-15T06:35:43.048Z,99166.89
2023-03-15T06:38:14.098Z,99166.05
2023-03-15T06:40:44.169Z,99168.22
2023-03-15T06:43:18.679Z,99164.33
2023-03-15T06:45:47.781Z,99170.70
2023-03-15T06:48:16.429Z,99167.80
2023-03-15T06:50:47.529Z,99172.14
2023-03-15T06:53:17.204Z,99174.96
2023-03-15T06:55:47.756Z,99175.98
2023-03-15T06:58:17.206Z,99180.55
2023-03-15T07:00:46.256Z,99176.27
2023-03-15T07:03:15.440Z,99174.96
2023-03-15T07:05:45.866Z,99171.30
2023-03-15T07:08:15.949Z,99171.52
2023-03-15T07:10:44.854Z,99161.63
2023-03-15T07:13:14.515Z,99148.73
2023-03-15T07:15:43.873Z,99142.57
2023-03-15T07:18:12.561Z,99141.11
2023-03-15T07:20:41.246Z,99150.67
2023-03-15T07:23:09.868Z,99154.92
2023-03-15T07:25:52.310Z,99159.53
2023-03-15T07:28:25.764Z,99172.98
2023-03-15T07:30:58.787Z,99186.70
2023-03-15T07:33:29.328Z,99196.87
2023-03-15T07:35:58.385Z,99205.40
2023-03-15T07:38:31.475Z,99209.39
2023-03-15T07:41:04.367Z,99214.05
2023-03-15T07:43:34.191Z,99219.60
2023-03-15T07:46:03.017Z,99220.37
2023-03-15T07:48:32.132Z,99221.19
2023-03-15T07:51:00.730Z,99221.27
2023-03-15T07:53:29.404Z,99226.91
2023-03-15T07:55:58.155Z,99229.29
2023-03-15T07:58:26.982Z,99224.48
2023-03-15T08:00:56.844Z,99217.98
2023-03-15T08:03:27.221Z,99210.14
2023-03-15T08:05:58.771Z,99184.23
2023-03-15T08:08:33.288Z,99164.95
2023-03-15T08:11:04.858Z,99166.94
2023-03-15T08:13:34.317Z,99156.33
2023-03-15T08:16:03.144Z,99123.12
2023-03-15T08:18:31.829Z,99096.35
2023-03-15T08:21:00.605Z,99068.48
2023-03-15T08:23:29.186Z,99083.38
2023-03-15T08:25:58.383Z,99067.30
2023-03-15T08:28:27.224Z,99048.15
2023-03-15T08:30:55.865Z,99039.68
2023-03-15T08:33:25.005Z,99040.17
2023-03-15T08:35:54.779Z,99071.34
2023-03-15T08:38:23.586Z,99051.29
2023-03-15T08:40:57.544Z,99030.59
2023-03-15T08:43:26.919Z,99043.90
2023-03-15T08:46:02.606Z,99075.85
2023-03-15T08:48:32.224Z,99095.52
2023-03-15T08:51:09.227Z,99118.01
2023-03-15T08:53:38.740Z,99126.10
2023-03-15T08:56:07.702Z,99144.68
2023-03-15T08:58:36.382Z,99156.96
2023-03-15T09:01:05.568Z,99166.48
2023-03-15T09:03:34.802Z,99176.13
2023-03-15T09:06:03.765Z,99202.63
2023-03-15T09:08:34.492Z,99235.35
2023-03-15T09:11:05.860Z,99246.00
2023-03-15T09:13:34.419Z,99252.45
2023-03-15T09:16:03.827Z,99260.73
2023-03-15T09:18:32.678Z,99276.54
2023-03-15T09:21:02.184Z,99276.09
2023-03-15T09:23:30.884Z,99230.88
2023-03-15T09:25:59.587Z,99189.99
2023-03-15T09:28:28.304Z,99182.09
2023-03-15T09:30:59.542Z,99137.66
2023-03-15T09:33:28.788Z,99074.86
2023-03-15T09:35:58.141Z,99013.05
2023-03-15T09:38:27.185Z,98953.56
2023-03-15T09:41:00.704Z,98947.80
2023-03-15T09:43:58.415Z,98951.77
2023-03-15T09:46:58.907Z,98946.05
2023-03-15T09:49:46.131Z,98997.88
2023-03-15T09:52:38.712Z,99018.09
2023-03-15T09:55:26.972Z,99011.70
2023-03-15T09:58:03.429Z,99000.55
2023-03-15T10:00:44.096Z,99085.59
2023-03-15T10:03:32.290Z,99198.94
2023-03-15T10:19:51.337Z,98953.88
